PILOTS ONLINE: 308    ATC ONLINE: 55

KFHU

Sierra Vista Municipal Libby Army Air Field

Location

IATA FHU
City Fort Huachuca Sierra Vista
Country  United States
Latitude 31° 35' 18" N
Longitude 110° 20' 38" W
Elevation 4719 ft
Type Medium Airport

Map

Weather

METAR
2014/09/18 01:23
KFHU 180123Z 12011KT 3SM -RA BR BKN004 OVC042 18/17 A2995
TAF
2014/09/18 23:00
TAF 
      AMD KFHU 1723/1901 13012KT 8000 -RA SCT006 BKN040 OVC100 QNH2994INS 
      TEMPO 1723/1805 20025G35KT SCT009 BKN030 OVC080 530009 
      BECMG 1807/1808 13012G18KT 9000 -SHRA BKN015 OVC070 QNH2996INS 
      BECMG 1815/1816 23015G25KT 8000 -SHRA BKN020 OVC060 QNH2990INS 
      BECMG 1822/1823 25009KT 9999 NSW SCT030 BKN140 QNH2988INS TX23/1821Z TN18/1812Z 
      AMD 172342

Runways

03/21 4285 ft / 75 ft
08/26 12001 ft / 150 ft
12/30 5366 ft / 100 ft

Outbound flights

Callsign Flying to Pilot ATD/STD ETA Aircraft

Inbound flights

Callsign Flying from Pilot ATD ETA Aircraft